Saint-Felicien, Canada
Current Conditions -  °F | °C
As of 9:00 AM on Thursday 27 Nov 2014 (Local Time) from CYRJ Reporting Station
Few Clouds Few Clouds  
Wind Chill: -4°   Ceiling: Unl
Heat Index: 12°   Visibility: 40mi
Dew Point:   Wind: 15mph
Humidity: 73%   Direction: 310°NW
Pressure: 30.07"   Gusts: NA
Location:  48.66°N, 72.45°W
Report Text: CYRJ 271400Z 31013KT 40SM FEW030 FEW100 M11/M15 A3007 RMK SC1AC2 SC TR SLP195
Loading
Personal Weather Stations






























Interactive Weather Map New forecast layout! Learn more

10-Day Weather Forecast

Advertisements
Track Severe Weather on mobile